sensor_id;sensor_type;location;lat;lon;timestamp;P1;durP1;ratioP1;P2;durP2;ratioP2
60851;SDS011;48553;50.766;2.900;2022-07-05T00:02:46;4.57;;;1.40;;
60851;SDS011;48553;50.766;2.900;2022-07-05T00:05:46;4.40;;;1.20;;
60851;SDS011;48553;50.766;2.900;2022-07-05T00:08:47;5.80;;;1.23;;
60851;SDS011;48553;50.766;2.900;2022-07-05T00:11:47;3.25;;;1.13;;
60851;SDS011;48553;50.766;2.900;2022-07-05T00:14:48;4.90;;;1.00;;
60851;SDS011;48553;50.766;2.900;2022-07-05T00:17:49;6.72;;;1.38;;
60851;SDS011;48553;50.766;2.900;2022-07-05T00:20:49;4.50;;;1.20;;
60851;SDS011;48553;50.766;2.900;2022-07-05T00:23:50;5.95;;;1.30;;
60851;SDS011;48553;50.766;2.900;2022-07-05T00:26:50;6.25;;;1.40;;
60851;SDS011;48553;50.766;2.900;2022-07-05T00:29:50;5.00;;;1.23;;
60851;SDS011;48553;50.766;2.900;2022-07-05T00:32:51;3.67;;;1.27;;
60851;SDS011;48553;50.766;2.900;2022-07-05T00:35:51;4.55;;;1.30;;
60851;SDS011;48553;50.766;2.900;2022-07-05T00:38:52;4.07;;;1.10;;
60851;SDS011;48553;50.766;2.900;2022-07-05T00:41:52;5.80;;;1.45;;
60851;SDS011;48553;50.766;2.900;2022-07-05T00:44:53;5.15;;;1.27;;
60851;SDS011;48553;50.766;2.900;2022-07-05T00:47:53;5.25;;;1.40;;
60851;SDS011;48553;50.766;2.900;2022-07-05T00:50:54;3.78;;;1.40;;
60851;SDS011;48553;50.766;2.900;2022-07-05T00:53:54;3.30;;;1.20;;
60851;SDS011;48553;50.766;2.900;2022-07-05T00:56:55;5.95;;;1.45;;
60851;SDS011;48553;50.766;2.900;2022-07-05T00:59:56;4.32;;;1.60;;
60851;SDS011;48553;50.766;2.900;2022-07-05T01:02:56;4.28;;;1.60;;
60851;SDS011;48553;50.766;2.900;2022-07-05T01:05:57;5.43;;;1.60;;
60851;SDS011;48553;50.766;2.900;2022-07-05T01:09:00;6.70;;;1.60;;
60851;SDS011;48553;50.766;2.900;2022-07-05T01:12:01;4.40;;;1.75;;
60851;SDS011;48553;50.766;2.900;2022-07-05T01:15:02;8.25;;;1.80;;
60851;SDS011;48553;50.766;2.900;2022-07-05T01:18:04;5.40;;;1.50;;
60851;SDS011;48553;50.766;2.900;2022-07-05T01:21:05;4.97;;;1.65;;
60851;SDS011;48553;50.766;2.900;2022-07-05T01:24:08;5.75;;;1.70;;
60851;SDS011;48553;50.766;2.900;2022-07-05T01:27:10;4.82;;;1.50;;
60851;SDS011;48553;50.766;2.900;2022-07-05T01:30:11;3.80;;;1.65;;
60851;SDS011;48553;50.766;2.900;2022-07-05T01:33:12;4.85;;;1.70;;
60851;SDS011;48553;50.766;2.900;2022-07-05T01:36:13;3.97;;;1.67;;
60851;SDS011;48553;50.766;2.900;2022-07-05T01:39:14;6.25;;;2.03;;
60851;SDS011;48553;50.766;2.900;2022-07-05T01:42:15;4.78;;;1.80;;
60851;SDS011;48553;50.766;2.900;2022-07-05T01:45:16;4.57;;;1.67;;
60851;SDS011;48553;50.766;2.900;2022-07-05T01:48:37;7.35;;;1.90;;
60851;SDS011;48553;50.766;2.900;2022-07-05T01:51:41;7.75;;;2.10;;
60851;SDS011;48553;50.766;2.900;2022-07-05T01:54:48;5.38;;;1.90;;
60851;SDS011;48553;50.766;2.900;2022-07-05T01:57:48;4.13;;;1.85;;
60851;SDS011;48553;50.766;2.900;2022-07-05T02:00:50;4.55;;;1.80;;
60851;SDS011;48553;50.766;2.900;2022-07-05T02:03:52;4.47;;;1.70;;
60851;SDS011;48553;50.766;2.900;2022-07-05T02:06:52;6.65;;;1.90;;
60851;SDS011;48553;50.766;2.900;2022-07-05T02:09:53;5.43;;;1.80;;
60851;SDS011;48553;50.766;2.900;2022-07-05T02:12:53;6.28;;;1.95;;
60851;SDS011;48553;50.766;2.900;2022-07-05T02:15:54;5.50;;;1.85;;
60851;SDS011;48553;50.766;2.900;2022-07-05T02:18:54;5.70;;;2.00;;
60851;SDS011;48553;50.766;2.900;2022-07-05T02:21:54;6.93;;;2.20;;
60851;SDS011;48553;50.766;2.900;2022-07-05T02:24:56;4.43;;;1.90;;
60851;SDS011;48553;50.766;2.900;2022-07-05T02:27:56;5.93;;;2.00;;
60851;SDS011;48553;50.766;2.900;2022-07-05T02:30:57;4.47;;;1.88;;
60851;SDS011;48553;50.766;2.900;2022-07-05T02:33:58;5.95;;;2.08;;
60851;SDS011;48553;50.766;2.900;2022-07-05T02:36:58;7.95;;;2.00;;
60851;SDS011;48553;50.766;2.900;2022-07-05T02:39:58;7.45;;;2.30;;
60851;SDS011;48553;50.766;2.900;2022-07-05T02:42:59;5.72;;;2.25;;
60851;SDS011;48553;50.766;2.900;2022-07-05T02:46:02;6.38;;;2.05;;
60851;SDS011;48553;50.766;2.900;2022-07-05T02:49:04;6.35;;;2.13;;
60851;SDS011;48553;50.766;2.900;2022-07-05T02:52:04;4.20;;;2.17;;
60851;SDS011;48553;50.766;2.900;2022-07-05T02:55:05;7.55;;;2.17;;
60851;SDS011;48553;50.766;2.900;2022-07-05T02:58:06;6.63;;;2.15;;
60851;SDS011;48553;50.766;2.900;2022-07-05T03:01:06;5.97;;;2.30;;
60851;SDS011;48553;50.766;2.900;2022-07-05T03:04:07;6.63;;;2.30;;
60851;SDS011;48553;50.766;2.900;2022-07-05T03:07:09;8.50;;;2.25;;
60851;SDS011;48553;50.766;2.900;2022-07-05T03:10:10;5.28;;;2.17;;
60851;SDS011;48553;50.766;2.900;2022-07-05T03:13:10;7.43;;;2.20;;
60851;SDS011;48553;50.766;2.900;2022-07-05T03:16:11;6.05;;;2.38;;
60851;SDS011;48553;50.766;2.900;2022-07-05T03:19:11;5.47;;;2.38;;
60851;SDS011;48553;50.766;2.900;2022-07-05T03:22:11;7.43;;;2.20;;
60851;SDS011;48553;50.766;2.900;2022-07-05T03:25:12;6.18;;;2.28;;
60851;SDS011;48553;50.766;2.900;2022-07-05T03:28:12;6.97;;;2.35;;
60851;SDS011;48553;50.766;2.900;2022-07-05T03:31:13;8.25;;;2.38;;
60851;SDS011;48553;50.766;2.900;2022-07-05T03:34:13;5.65;;;2.03;;
60851;SDS011;48553;50.766;2.900;2022-07-05T03:37:13;6.35;;;2.15;;
60851;SDS011;48553;50.766;2.900;2022-07-05T03:40:14;5.38;;;2.50;;
60851;SDS011;48553;50.766;2.900;2022-07-05T03:43:14;7.65;;;2.20;;
60851;SDS011;48553;50.766;2.900;2022-07-05T03:46:15;8.95;;;2.42;;
60851;SDS011;48553;50.766;2.900;2022-07-05T03:49:15;8.88;;;2.17;;
60851;SDS011;48553;50.766;2.900;2022-07-05T03:52:16;9.55;;;2.30;;
60851;SDS011;48553;50.766;2.900;2022-07-05T03:55:16;6.68;;;2.38;;
60851;SDS011;48553;50.766;2.900;2022-07-05T03:58:17;6.47;;;2.45;;
60851;SDS011;48553;50.766;2.900;2022-07-05T04:01:17;6.82;;;2.38;;
60851;SDS011;48553;50.766;2.900;2022-07-05T04:04:18;7.50;;;2.47;;
60851;SDS011;48553;50.766;2.900;2022-07-05T04:07:18;6.82;;;2.63;;
60851;SDS011;48553;50.766;2.900;2022-07-05T04:10:18;6.35;;;2.50;;
60851;SDS011;48553;50.766;2.900;2022-07-05T04:13:19;4.25;;;2.58;;
60851;SDS011;48553;50.766;2.900;2022-07-05T04:16:20;8.85;;;2.80;;
60851;SDS011;48553;50.766;2.900;2022-07-05T04:19:20;10.02;;;3.13;;
60851;SDS011;48553;50.766;2.900;2022-07-05T04:22:21;7.50;;;2.72;;
60851;SDS011;48553;50.766;2.900;2022-07-05T04:25:21;6.40;;;2.53;;
60851;SDS011;48553;50.766;2.900;2022-07-05T04:28:21;5.57;;;2.55;;
60851;SDS011;48553;50.766;2.900;2022-07-05T04:31:22;6.50;;;2.50;;
60851;SDS011;48553;50.766;2.900;2022-07-05T04:34:22;7.55;;;2.75;;
60851;SDS011;48553;50.766;2.900;2022-07-05T04:37:23;8.32;;;2.67;;
60851;SDS011;48553;50.766;2.900;2022-07-05T04:40:23;5.93;;;2.97;;
60851;SDS011;48553;50.766;2.900;2022-07-05T04:43:23;8.95;;;3.03;;
60851;SDS011;48553;50.766;2.900;2022-07-05T04:46:24;8.40;;;2.92;;
60851;SDS011;48553;50.766;2.900;2022-07-05T04:49:24;7.90;;;2.63;;
60851;SDS011;48553;50.766;2.900;2022-07-05T04:52:25;8.18;;;3.17;;
60851;SDS011;48553;50.766;2.900;2022-07-05T04:55:26;7.50;;;2.80;;
60851;SDS011;48553;50.766;2.900;2022-07-05T04:58:26;7.93;;;2.75;;
60851;SDS011;48553;50.766;2.900;2022-07-05T05:01:26;6.45;;;2.72;;
60851;SDS011;48553;50.766;2.900;2022-07-05T05:04:27;7.70;;;3.05;;
60851;SDS011;48553;50.766;2.900;2022-07-05T05:07:27;6.35;;;3.38;;
60851;SDS011;48553;50.766;2.900;2022-07-05T05:10:28;7.57;;;2.90;;
60851;SDS011;48553;50.766;2.900;2022-07-05T05:13:28;8.52;;;2.78;;
60851;SDS011;48553;50.766;2.900;2022-07-05T05:16:29;6.55;;;2.90;;
60851;SDS011;48553;50.766;2.900;2022-07-05T05:19:29;8.48;;;2.88;;
60851;SDS011;48553;50.766;2.900;2022-07-05T05:22:30;7.80;;;3.17;;
60851;SDS011;48553;50.766;2.900;2022-07-05T05:25:30;6.57;;;2.92;;
60851;SDS011;48553;50.766;2.900;2022-07-05T05:28:31;9.65;;;3.05;;
60851;SDS011;48553;50.766;2.900;2022-07-05T05:31:31;10.07;;;3.28;;
60851;SDS011;48553;50.766;2.900;2022-07-05T05:34:32;8.65;;;3.20;;
60851;SDS011;48553;50.766;2.900;2022-07-05T05:37:54;10.95;;;3.28;;
60851;SDS011;48553;50.766;2.900;2022-07-05T05:40:54;5.90;;;2.63;;
60851;SDS011;48553;50.766;2.900;2022-07-05T05:43:54;6.68;;;2.95;;
60851;SDS011;48553;50.766;2.900;2022-07-05T05:46:54;7.95;;;2.95;;
60851;SDS011;48553;50.766;2.900;2022-07-05T05:49:55;6.38;;;2.60;;
60851;SDS011;48553;50.766;2.900;2022-07-05T05:52:55;8.00;;;2.70;;
60851;SDS011;48553;50.766;2.900;2022-07-05T05:55:56;7.88;;;2.70;;
60851;SDS011;48553;50.766;2.900;2022-07-05T05:58:57;5.55;;;2.35;;
60851;SDS011;48553;50.766;2.900;2022-07-05T06:01:57;8.10;;;2.60;;
60851;SDS011;48553;50.766;2.900;2022-07-05T06:04:58;5.85;;;2.28;;
60851;SDS011;48553;50.766;2.900;2022-07-05T06:07:58;5.47;;;2.20;;
60851;SDS011;48553;50.766;2.900;2022-07-05T06:10:58;7.15;;;2.50;;
60851;SDS011;48553;50.766;2.900;2022-07-05T06:13:59;8.15;;;2.58;;
60851;SDS011;48553;50.766;2.900;2022-07-05T06:16:59;5.85;;;2.30;;
60851;SDS011;48553;50.766;2.900;2022-07-05T06:20:03;6.53;;;2.53;;
60851;SDS011;48553;50.766;2.900;2022-07-05T06:23:10;6.50;;;2.22;;
60851;SDS011;48553;50.766;2.900;2022-07-05T06:26:10;6.55;;;2.17;;
60851;SDS011;48553;50.766;2.900;2022-07-05T06:29:11;5.80;;;2.25;;
60851;SDS011;48553;50.766;2.900;2022-07-05T06:32:11;7.93;;;2.70;;
60851;SDS011;48553;50.766;2.900;2022-07-05T06:35:12;7.97;;;2.38;;
60851;SDS011;48553;50.766;2.900;2022-07-05T06:38:13;7.22;;;2.38;;
60851;SDS011;48553;50.766;2.900;2022-07-05T06:41:13;5.13;;;2.28;;
60851;SDS011;48553;50.766;2.900;2022-07-05T06:44:14;8.32;;;2.47;;
60851;SDS011;48553;50.766;2.900;2022-07-05T06:47:15;7.10;;;2.17;;
60851;SDS011;48553;50.766;2.900;2022-07-05T06:50:15;5.43;;;2.25;;
60851;SDS011;48553;50.766;2.900;2022-07-05T06:53:16;9.10;;;2.50;;
60851;SDS011;48553;50.766;2.900;2022-07-05T06:56:16;4.88;;;2.08;;
60851;SDS011;48553;50.766;2.900;2022-07-05T06:59:17;5.88;;;2.33;;
60851;SDS011;48553;50.766;2.900;2022-07-05T07:02:17;6.10;;;2.10;;
60851;SDS011;48553;50.766;2.900;2022-07-05T07:05:19;6.32;;;2.05;;
60851;SDS011;48553;50.766;2.900;2022-07-05T07:08:19;5.78;;;1.88;;
60851;SDS011;48553;50.766;2.900;2022-07-05T07:11:38;6.18;;;2.00;;
60851;SDS011;48553;50.766;2.900;2022-07-05T07:14:39;5.22;;;2.00;;
60851;SDS011;48553;50.766;2.900;2022-07-05T07:17:39;7.32;;;2.15;;
60851;SDS011;48553;50.766;2.900;2022-07-05T07:20:39;5.70;;;2.30;;
60851;SDS011;48553;50.766;2.900;2022-07-05T07:23:40;5.68;;;2.08;;
60851;SDS011;48553;50.766;2.900;2022-07-05T07:26:40;5.10;;;1.80;;
60851;SDS011;48553;50.766;2.900;2022-07-05T07:29:59;6.90;;;2.33;;
60851;SDS011;48553;50.766;2.900;2022-07-05T07:33:00;6.40;;;1.88;;
60851;SDS011;48553;50.766;2.900;2022-07-05T07:36:00;6.32;;;1.98;;
60851;SDS011;48553;50.766;2.900;2022-07-05T07:39:01;5.00;;;2.30;;
60851;SDS011;48553;50.766;2.900;2022-07-05T07:42:01;6.03;;;2.08;;
60851;SDS011;48553;50.766;2.900;2022-07-05T07:45:02;3.85;;;1.83;;
60851;SDS011;48553;50.766;2.900;2022-07-05T07:48:05;4.83;;;1.90;;
60851;SDS011;48553;50.766;2.900;2022-07-05T07:51:06;5.90;;;2.10;;
60851;SDS011;48553;50.766;2.900;2022-07-05T07:54:06;5.03;;;2.00;;
60851;SDS011;48553;50.766;2.900;2022-07-05T07:57:06;3.17;;;1.85;;
60851;SDS011;48553;50.766;2.900;2022-07-05T08:00:07;3.08;;;1.67;;
60851;SDS011;48553;50.766;2.900;2022-07-05T08:03:08;4.72;;;1.80;;
60851;SDS011;48553;50.766;2.900;2022-07-05T08:06:09;3.75;;;1.45;;
60851;SDS011;48553;50.766;2.900;2022-07-05T08:09:13;3.80;;;1.52;;
60851;SDS011;48553;50.766;2.900;2022-07-05T08:12:14;4.78;;;1.38;;
60851;SDS011;48553;50.766;2.900;2022-07-05T08:15:14;2.85;;;1.48;;
60851;SDS011;48553;50.766;2.900;2022-07-05T08:18:14;3.00;;;1.50;;
60851;SDS011;48553;50.766;2.900;2022-07-05T08:21:33;3.70;;;1.40;;
60851;SDS011;48553;50.766;2.900;2022-07-05T08:24:40;5.13;;;1.48;;
60851;SDS011;48553;50.766;2.900;2022-07-05T08:27:40;2.17;;;1.15;;
60851;SDS011;48553;50.766;2.900;2022-07-05T08:30:41;3.42;;;1.20;;
60851;SDS011;48553;50.766;2.900;2022-07-05T08:33:44;3.72;;;1.10;;
60851;SDS011;48553;50.766;2.900;2022-07-05T08:36:45;3.78;;;1.20;;
60851;SDS011;48553;50.766;2.900;2022-07-05T08:39:46;2.70;;;1.00;;
60851;SDS011;48553;50.766;2.900;2022-07-05T08:42:46;3.47;;;1.05;;
60851;SDS011;48553;50.766;2.900;2022-07-05T08:45:48;5.30;;;1.20;;
60851;SDS011;48553;50.766;2.900;2022-07-05T08:48:50;2.55;;;0.80;;
60851;SDS011;48553;50.766;2.900;2022-07-05T08:51:52;3.90;;;1.05;;
60851;SDS011;48553;50.766;2.900;2022-07-05T08:54:54;2.50;;;0.82;;
60851;SDS011;48553;50.766;2.900;2022-07-05T08:57:55;3.28;;;1.00;;
60851;SDS011;48553;50.766;2.900;2022-07-05T09:00:55;3.00;;;0.95;;
60851;SDS011;48553;50.766;2.900;2022-07-05T09:03:57;2.60;;;0.80;;
60851;SDS011;48553;50.766;2.900;2022-07-05T09:07:02;2.90;;;0.90;;
60851;SDS011;48553;50.766;2.900;2022-07-05T09:10:04;2.33;;;0.80;;
60851;SDS011;48553;50.766;2.900;2022-07-05T09:13:05;5.00;;;0.90;;
60851;SDS011;48553;50.766;2.900;2022-07-05T09:16:05;2.58;;;0.82;;
60851;SDS011;48553;50.766;2.900;2022-07-05T09:19:07;3.03;;;0.93;;
60851;SDS011;48553;50.766;2.900;2022-07-05T09:22:08;2.95;;;0.80;;
60851;SDS011;48553;50.766;2.900;2022-07-05T09:28:16;2.28;;;0.80;;
60851;SDS011;48553;50.766;2.900;2022-07-05T09:31:25;3.42;;;0.80;;
60851;SDS011;48553;50.766;2.900;2022-07-05T09:34:31;1.27;;;0.52;;
60851;SDS011;48553;50.766;2.900;2022-07-05T09:37:41;2.80;;;0.63;;
60851;SDS011;48553;50.766;2.900;2022-07-05T09:40:47;3.78;;;0.88;;
60851;SDS011;48553;50.766;2.900;2022-07-05T09:43:51;3.60;;;0.80;;
60851;SDS011;48553;50.766;2.900;2022-07-05T09:47:06;2.47;;;0.65;;
60851;SDS011;48553;50.766;2.900;2022-07-05T09:50:07;3.03;;;0.60;;
60851;SDS011;48553;50.766;2.900;2022-07-05T09:53:09;2.05;;;0.70;;
60851;SDS011;48553;50.766;2.900;2022-07-05T09:56:11;1.85;;;0.77;;
60851;SDS011;48553;50.766;2.900;2022-07-05T09:59:17;2.20;;;0.70;;
60851;SDS011;48553;50.766;2.900;2022-07-05T10:02:35;1.92;;;0.70;;
60851;SDS011;48553;50.766;2.900;2022-07-05T10:05:37;2.97;;;0.70;;
60851;SDS011;48553;50.766;2.900;2022-07-05T10:08:37;3.13;;;0.70;;
60851;SDS011;48553;50.766;2.900;2022-07-05T10:11:40;2.17;;;0.63;;
60851;SDS011;48553;50.766;2.900;2022-07-05T10:14:41;2.15;;;0.60;;
60851;SDS011;48553;50.766;2.900;2022-07-05T10:17:47;2.33;;;0.60;;
60851;SDS011;48553;50.766;2.900;2022-07-05T10:21:01;3.33;;;0.80;;
60851;SDS011;48553;50.766;2.900;2022-07-05T10:24:04;1.77;;;0.60;;
60851;SDS011;48553;50.766;2.900;2022-07-05T10:27:05;1.52;;;0.70;;
60851;SDS011;48553;50.766;2.900;2022-07-05T10:30:08;1.63;;;0.60;;
60851;SDS011;48553;50.766;2.900;2022-07-05T10:33:10;1.52;;;0.65;;
60851;SDS011;48553;50.766;2.900;2022-07-05T10:36:14;2.07;;;0.63;;
60851;SDS011;48553;50.766;2.900;2022-07-05T10:39:14;2.78;;;0.65;;
60851;SDS011;48553;50.766;2.900;2022-07-05T10:42:16;3.67;;;0.70;;
60851;SDS011;48553;50.766;2.900;2022-07-05T10:48:25;2.17;;;0.75;;
60851;SDS011;48553;50.766;2.900;2022-07-05T10:51:26;2.55;;;0.80;;
60851;SDS011;48553;50.766;2.900;2022-07-05T10:54:27;3.92;;;0.82;;
60851;SDS011;48553;50.766;2.900;2022-07-05T10:57:27;1.70;;;0.70;;
60851;SDS011;48553;50.766;2.900;2022-07-05T11:00:28;2.58;;;0.63;;
60851;SDS011;48553;50.766;2.900;2022-07-05T11:03:38;3.10;;;0.80;;
60851;SDS011;48553;50.766;2.900;2022-07-05T11:06:42;2.75;;;0.80;;
60851;SDS011;48553;50.766;2.900;2022-07-05T11:10:05;3.60;;;0.70;;
60851;SDS011;48553;50.766;2.900;2022-07-05T11:20:11;1.80;;;0.80;;
60851;SDS011;48553;50.766;2.900;2022-07-05T11:23:12;1.70;;;0.80;;
60851;SDS011;48553;50.766;2.900;2022-07-05T11:26:13;1.73;;;0.70;;
60851;SDS011;48553;50.766;2.900;2022-07-05T11:32:50;2.08;;;0.80;;
60851;SDS011;48553;50.766;2.900;2022-07-05T11:35:51;3.97;;;0.80;;
60851;SDS011;48553;50.766;2.900;2022-07-05T11:39:11;4.07;;;0.80;;
60851;SDS011;48553;50.766;2.900;2022-07-05T11:42:21;2.38;;;0.70;;
60851;SDS011;48553;50.766;2.900;2022-07-05T11:45:22;3.22;;;0.73;;
60851;SDS011;48553;50.766;2.900;2022-07-05T11:48:23;1.48;;;0.75;;
60851;SDS011;48553;50.766;2.900;2022-07-05T11:51:25;3.15;;;0.80;;
60851;SDS011;48553;50.766;2.900;2022-07-05T11:54:27;2.50;;;0.82;;
60851;SDS011;48553;50.766;2.900;2022-07-05T11:57:29;3.38;;;0.75;;
60851;SDS011;48553;50.766;2.900;2022-07-05T12:03:32;3.60;;;0.73;;
60851;SDS011;48553;50.766;2.900;2022-07-05T12:06:39;1.85;;;0.88;;
60851;SDS011;48553;50.766;2.900;2022-07-05T12:09:42;2.80;;;0.63;;
60851;SDS011;48553;50.766;2.900;2022-07-05T12:13:05;1.75;;;0.60;;
60851;SDS011;48553;50.766;2.900;2022-07-05T12:16:06;3.40;;;0.57;;
60851;SDS011;48553;50.766;2.900;2022-07-05T12:19:07;4.03;;;0.80;;
60851;SDS011;48553;50.766;2.900;2022-07-05T12:22:07;3.15;;;0.80;;
60851;SDS011;48553;50.766;2.900;2022-07-05T12:25:10;1.23;;;0.52;;
60851;SDS011;48553;50.766;2.900;2022-07-05T12:28:13;1.23;;;0.63;;
60851;SDS011;48553;50.766;2.900;2022-07-05T12:31:15;2.85;;;0.57;;
60851;SDS011;48553;50.766;2.900;2022-07-05T12:34:19;1.40;;;0.68;;
60851;SDS011;48553;50.766;2.900;2022-07-05T12:37:25;3.95;;;0.70;;
60851;SDS011;48553;50.766;2.900;2022-07-05T12:40:26;2.25;;;0.70;;
60851;SDS011;48553;50.766;2.900;2022-07-05T12:43:27;2.22;;;0.80;;
60851;SDS011;48553;50.766;2.900;2022-07-05T12:46:38;1.20;;;0.60;;
60851;SDS011;48553;50.766;2.900;2022-07-05T12:49:52;2.40;;;0.80;;
60851;SDS011;48553;50.766;2.900;2022-07-05T12:56:22;2.53;;;0.77;;
60851;SDS011;48553;50.766;2.900;2022-07-05T13:00:01;2.03;;;0.70;;
60851;SDS011;48553;50.766;2.900;2022-07-05T13:03:05;2.35;;;0.70;;
60851;SDS011;48553;50.766;2.900;2022-07-05T13:06:07;1.75;;;0.80;;
60851;SDS011;48553;50.766;2.900;2022-07-05T13:09:08;2.55;;;0.80;;
60851;SDS011;48553;50.766;2.900;2022-07-05T13:12:12;1.92;;;0.60;;
60851;SDS011;48553;50.766;2.900;2022-07-05T13:15:16;1.63;;;0.70;;
60851;SDS011;48553;50.766;2.900;2022-07-05T13:18:24;2.65;;;0.60;;
60851;SDS011;48553;50.766;2.900;2022-07-05T13:21:25;1.55;;;0.60;;
60851;SDS011;48553;50.766;2.900;2022-07-05T13:24:26;3.05;;;0.85;;
60851;SDS011;48553;50.766;2.900;2022-07-05T13:27:26;1.80;;;0.65;;
60851;SDS011;48553;50.766;2.900;2022-07-05T13:30:27;3.45;;;0.70;;
60851;SDS011;48553;50.766;2.900;2022-07-05T13:33:27;2.92;;;0.85;;
60851;SDS011;48553;50.766;2.900;2022-07-05T13:36:27;3.45;;;0.73;;
60851;SDS011;48553;50.766;2.900;2022-07-05T13:39:28;2.40;;;0.75;;
60851;SDS011;48553;50.766;2.900;2022-07-05T13:42:28;2.45;;;0.70;;
60851;SDS011;48553;50.766;2.900;2022-07-05T13:45:29;1.60;;;0.60;;
60851;SDS011;48553;50.766;2.900;2022-07-05T13:48:29;1.95;;;0.75;;
60851;SDS011;48553;50.766;2.900;2022-07-05T13:51:30;5.05;;;0.80;;
60851;SDS011;48553;50.766;2.900;2022-07-05T13:54:30;3.60;;;0.75;;
60851;SDS011;48553;50.766;2.900;2022-07-05T13:57:31;5.35;;;0.80;;
60851;SDS011;48553;50.766;2.900;2022-07-05T14:00:31;3.40;;;0.70;;
60851;SDS011;48553;50.766;2.900;2022-07-05T14:03:32;1.70;;;0.55;;
60851;SDS011;48553;50.766;2.900;2022-07-05T14:06:32;1.90;;;0.70;;
60851;SDS011;48553;50.766;2.900;2022-07-05T14:09:34;2.00;;;0.63;;
60851;SDS011;48553;50.766;2.900;2022-07-05T14:12:35;2.70;;;0.70;;
60851;SDS011;48553;50.766;2.900;2022-07-05T14:15:35;1.73;;;0.70;;
60851;SDS011;48553;50.766;2.900;2022-07-05T14:18:36;2.50;;;0.70;;
60851;SDS011;48553;50.766;2.900;2022-07-05T14:21:36;2.45;;;0.70;;
60851;SDS011;48553;50.766;2.900;2022-07-05T14:24:37;2.97;;;0.70;;
60851;SDS011;48553;50.766;2.900;2022-07-05T14:27:37;1.75;;;0.55;;
60851;SDS011;48553;50.766;2.900;2022-07-05T14:30:40;1.52;;;0.60;;
60851;SDS011;48553;50.766;2.900;2022-07-05T14:33:45;1.13;;;0.60;;
60851;SDS011;48553;50.766;2.900;2022-07-05T14:36:46;1.13;;;0.55;;
60851;SDS011;48553;50.766;2.900;2022-07-05T14:39:46;2.33;;;0.60;;
60851;SDS011;48553;50.766;2.900;2022-07-05T14:42:47;4.63;;;0.70;;
60851;SDS011;48553;50.766;2.900;2022-07-05T14:45:47;1.75;;;0.68;;
60851;SDS011;48553;50.766;2.900;2022-07-05T14:48:48;1.27;;;0.50;;
60851;SDS011;48553;50.766;2.900;2022-07-05T14:51:48;2.15;;;0.50;;
60851;SDS011;48553;50.766;2.900;2022-07-05T14:54:48;1.88;;;0.70;;
60851;SDS011;48553;50.766;2.900;2022-07-05T14:57:49;2.08;;;0.70;;
60851;SDS011;48553;50.766;2.900;2022-07-05T15:00:51;2.53;;;0.70;;
60851;SDS011;48553;50.766;2.900;2022-07-05T15:03:51;1.98;;;0.52;;
60851;SDS011;48553;50.766;2.900;2022-07-05T15:06:52;1.25;;;0.57;;
60851;SDS011;48553;50.766;2.900;2022-07-05T15:09:53;2.15;;;0.52;;
60851;SDS011;48553;50.766;2.900;2022-07-05T15:12:54;2.58;;;0.60;;
60851;SDS011;48553;50.766;2.900;2022-07-05T15:15:54;1.55;;;0.60;;
60851;SDS011;48553;50.766;2.900;2022-07-05T15:18:59;1.77;;;0.47;;
60851;SDS011;48553;50.766;2.900;2022-07-05T15:21:59;3.22;;;0.77;;
60851;SDS011;48553;50.766;2.900;2022-07-05T15:24:59;1.85;;;0.60;;
60851;SDS011;48553;50.766;2.900;2022-07-05T15:28:00;2.70;;;0.80;;
60851;SDS011;48553;50.766;2.900;2022-07-05T15:31:00;1.35;;;0.60;;
60851;SDS011;48553;50.766;2.900;2022-07-05T15:34:01;1.98;;;0.50;;
60851;SDS011;48553;50.766;2.900;2022-07-05T15:37:02;1.30;;;0.60;;
60851;SDS011;48553;50.766;2.900;2022-07-05T15:40:03;3.03;;;0.80;;
60851;SDS011;48553;50.766;2.900;2022-07-05T15:43:04;2.95;;;0.80;;
60851;SDS011;48553;50.766;2.900;2022-07-05T15:46:04;2.47;;;0.60;;
60851;SDS011;48553;50.766;2.900;2022-07-05T15:49:05;2.75;;;0.77;;
60851;SDS011;48553;50.766;2.900;2022-07-05T15:52:05;1.98;;;0.70;;
60851;SDS011;48553;50.766;2.900;2022-07-05T15:55:06;2.00;;;0.70;;
60851;SDS011;48553;50.766;2.900;2022-07-05T15:58:07;3.83;;;0.88;;
60851;SDS011;48553;50.766;2.900;2022-07-05T16:01:07;2.63;;;0.85;;
60851;SDS011;48553;50.766;2.900;2022-07-05T16:04:08;2.05;;;0.70;;
60851;SDS011;48553;50.766;2.900;2022-07-05T16:07:08;1.92;;;0.70;;
60851;SDS011;48553;50.766;2.900;2022-07-05T16:10:10;2.28;;;0.90;;
60851;SDS011;48553;50.766;2.900;2022-07-05T16:13:10;2.15;;;0.90;;
60851;SDS011;48553;50.766;2.900;2022-07-05T16:16:12;2.50;;;0.70;;
60851;SDS011;48553;50.766;2.900;2022-07-05T16:19:13;4.93;;;0.90;;
60851;SDS011;48553;50.766;2.900;2022-07-05T16:22:14;4.15;;;1.05;;
60851;SDS011;48553;50.766;2.900;2022-07-05T16:25:14;1.33;;;0.73;;
60851;SDS011;48553;50.766;2.900;2022-07-05T16:28:14;2.38;;;0.68;;
60851;SDS011;48553;50.766;2.900;2022-07-05T16:31:15;3.00;;;0.68;;
60851;SDS011;48553;50.766;2.900;2022-07-05T16:34:16;1.30;;;0.70;;
60851;SDS011;48553;50.766;2.900;2022-07-05T16:37:16;2.45;;;0.90;;
60851;SDS011;48553;50.766;2.900;2022-07-05T16:40:17;4.55;;;0.90;;
60851;SDS011;48553;50.766;2.900;2022-07-05T16:43:17;2.08;;;0.70;;
60851;SDS011;48553;50.766;2.900;2022-07-05T16:46:18;3.25;;;1.00;;
60851;SDS011;48553;50.766;2.900;2022-07-05T16:49:19;2.65;;;0.70;;
60851;SDS011;48553;50.766;2.900;2022-07-05T16:52:19;3.30;;;0.90;;
60851;SDS011;48553;50.766;2.900;2022-07-05T16:55:20;2.05;;;0.70;;
60851;SDS011;48553;50.766;2.900;2022-07-05T16:58:20;2.03;;;0.73;;
60851;SDS011;48553;50.766;2.900;2022-07-05T17:01:21;2.67;;;0.80;;
60851;SDS011;48553;50.766;2.900;2022-07-05T17:04:23;2.60;;;1.00;;
60851;SDS011;48553;50.766;2.900;2022-07-05T17:07:23;2.50;;;0.80;;
60851;SDS011;48553;50.766;2.900;2022-07-05T17:10:24;2.42;;;0.80;;
60851;SDS011;48553;50.766;2.900;2022-07-05T17:13:24;2.13;;;0.80;;
60851;SDS011;48553;50.766;2.900;2022-07-05T17:16:26;2.35;;;0.80;;
60851;SDS011;48553;50.766;2.900;2022-07-05T17:19:26;2.92;;;0.90;;
60851;SDS011;48553;50.766;2.900;2022-07-05T17:22:26;2.47;;;0.70;;
60851;SDS011;48553;50.766;2.900;2022-07-05T17:25:27;2.25;;;0.70;;
60851;SDS011;48553;50.766;2.900;2022-07-05T17:28:27;3.08;;;0.90;;
60851;SDS011;48553;50.766;2.900;2022-07-05T17:31:28;2.45;;;0.80;;
60851;SDS011;48553;50.766;2.900;2022-07-05T17:34:28;2.40;;;0.90;;
60851;SDS011;48553;50.766;2.900;2022-07-05T17:37:29;3.97;;;0.70;;
60851;SDS011;48553;50.766;2.900;2022-07-05T17:40:29;4.72;;;0.95;;
60851;SDS011;48553;50.766;2.900;2022-07-05T17:43:31;3.03;;;0.90;;
60851;SDS011;48553;50.766;2.900;2022-07-05T17:46:31;3.03;;;0.90;;
60851;SDS011;48553;50.766;2.900;2022-07-05T17:49:32;2.30;;;0.80;;
60851;SDS011;48553;50.766;2.900;2022-07-05T17:52:32;3.42;;;0.80;;
60851;SDS011;48553;50.766;2.900;2022-07-05T17:55:33;2.70;;;0.85;;
60851;SDS011;48553;50.766;2.900;2022-07-05T17:58:34;2.67;;;0.90;;
60851;SDS011;48553;50.766;2.900;2022-07-05T18:01:34;3.95;;;0.80;;
60851;SDS011;48553;50.766;2.900;2022-07-05T18:04:35;2.22;;;1.00;;
60851;SDS011;48553;50.766;2.900;2022-07-05T18:07:35;2.55;;;0.98;;
60851;SDS011;48553;50.766;2.900;2022-07-05T18:10:36;3.83;;;0.80;;
60851;SDS011;48553;50.766;2.900;2022-07-05T18:13:36;6.18;;;0.85;;
60851;SDS011;48553;50.766;2.900;2022-07-05T18:16:37;4.13;;;0.90;;
60851;SDS011;48553;50.766;2.900;2022-07-05T18:19:37;3.08;;;0.90;;
60851;SDS011;48553;50.766;2.900;2022-07-05T18:22:38;3.13;;;0.88;;
60851;SDS011;48553;50.766;2.900;2022-07-05T18:25:38;4.53;;;1.10;;
60851;SDS011;48553;50.766;2.900;2022-07-05T18:28:42;2.85;;;0.90;;
60851;SDS011;48553;50.766;2.900;2022-07-05T18:31:44;2.85;;;0.77;;
60851;SDS011;48553;50.766;2.900;2022-07-05T18:34:44;2.58;;;1.00;;
60851;SDS011;48553;50.766;2.900;2022-07-05T18:37:45;2.83;;;0.93;;
60851;SDS011;48553;50.766;2.900;2022-07-05T18:40:46;3.17;;;0.80;;